createdAt,value
2022-11-23T00:00:39.038Z,8.5
2022-11-23T00:02:57.404Z,8.5
2022-11-23T00:04:06.660Z,8.5
2022-11-23T00:05:15.720Z,8.5
2022-11-23T00:06:24.882Z,8.5
2022-11-23T00:07:34.067Z,8.5
2022-11-23T00:08:43.248Z,8.6
2022-11-23T00:09:52.605Z,8.5
2022-11-23T00:11:01.573Z,8.5
2022-11-23T00:12:10.760Z,8.5
2022-11-23T00:13:19.921Z,8.5
2022-11-23T00:14:28.172Z,8.6
2022-11-23T00:15:37.280Z,8.5
2022-11-23T00:16:46.500Z,8.5
2022-11-23T00:17:55.614Z,8.5
2022-11-23T00:19:04.847Z,8.5
2022-11-23T00:20:14.046Z,8.5
2022-11-23T00:21:23.192Z,8.5
2022-11-23T00:22:32.378Z,8.6
2022-11-23T00:23:40.639Z,8.6
2022-11-23T00:24:48.707Z,8.5
2022-11-23T00:25:57.947Z,8.5
2022-11-23T00:27:06.127Z,8.6
2022-11-23T00:28:14.350Z,8.5
2022-11-23T00:29:23.512Z,8.5
2022-11-23T00:30:32.712Z,8.5
2022-11-23T00:31:41.875Z,8.6
2022-11-23T00:32:50.977Z,8.6
2022-11-23T00:34:00.208Z,8.6
2022-11-23T00:35:09.303Z,8.5
2022-11-23T00:36:18.527Z,8.5
2022-11-23T00:37:27.671Z,8.6
2022-11-23T00:38:36.833Z,8.5
2022-11-23T00:39:46.113Z,8.6
2022-11-23T00:40:55.166Z,8.5
2022-11-23T00:42:04.330Z,8.6
2022-11-23T00:43:12.514Z,8.6
2022-11-23T00:44:21.793Z,8.7
2022-11-23T00:45:30.943Z,8.6
2022-11-23T00:46:40.028Z,8.6
2022-11-23T00:47:49.221Z,8.5
2022-11-23T00:48:58.374Z,8.6
2022-11-23T00:50:07.672Z,8.6
2022-11-23T00:51:16.728Z,8.6
2022-11-23T00:52:25.881Z,8.7
2022-11-23T00:53:35.102Z,8.6
2022-11-23T00:54:44.286Z,8.6
2022-11-23T00:55:53.411Z,8.6
2022-11-23T00:57:02.643Z,8.7
2022-11-23T00:58:10.775Z,8.7
2022-11-23T00:59:19.972Z,8.7
2022-11-23T01:00:29.112Z,8.7
2022-11-23T01:01:38.335Z,8.8
2022-11-23T01:02:47.481Z,8.7
2022-11-23T01:03:56.701Z,8.8
2022-11-23T01:05:05.805Z,8.7
2022-11-23T01:06:14.982Z,8.8
2022-11-23T01:07:24.230Z,8.8
2022-11-23T01:08:33.321Z,8.8
2022-11-23T01:09:42.526Z,8.8
2022-11-23T01:10:51.693Z,8.8
2022-11-23T01:12:00.842Z,8.8
2022-11-23T01:13:09.041Z,8.7
2022-11-23T01:14:18.205Z,8.8
2022-11-23T01:15:27.369Z,8.8
2022-11-23T01:16:36.633Z,8.8
2022-11-23T01:17:45.765Z,8.8
2022-11-23T01:18:54.902Z,8.8
2022-11-23T01:20:04.134Z,8.8
2022-11-23T01:22:22.423Z,8.7
2022-11-23T01:23:31.598Z,8.8
2022-11-23T01:24:39.778Z,8.8
2022-11-23T01:25:47.973Z,8.8
2022-11-23T01:26:57.193Z,8.8
2022-11-23T01:28:05.337Z,8.9
2022-11-23T01:29:13.516Z,8.9
2022-11-23T01:30:22.782Z,8.9
2022-11-23T01:31:31.880Z,8.8
2022-11-23T01:32:41.074Z,8.9
2022-11-23T01:33:50.296Z,8.9
2022-11-23T01:34:59.380Z,9
2022-11-23T01:36:08.569Z,8.9
2022-11-23T01:37:17.839Z,8.9
2022-11-23T01:38:27.062Z,9
2022-11-23T01:39:36.169Z,9
2022-11-23T01:40:45.464Z,9
2022-11-23T01:41:54.455Z,8.9
2022-11-23T01:43:03.702Z,8.9
2022-11-23T01:44:11.887Z,8.9
2022-11-23T01:45:20.953Z,8.9
2022-11-23T01:46:30.230Z,9.1
2022-11-23T01:47:39.444Z,9
2022-11-23T01:48:48.474Z,9
2022-11-23T01:49:57.784Z,9
2022-11-23T01:51:06.821Z,9
2022-11-23T01:52:15.085Z,9.1
2022-11-23T01:53:24.308Z,9.1
2022-11-23T01:54:32.483Z,9.1
2022-11-23T01:55:41.651Z,9.1
2022-11-23T01:56:50.752Z,9.1
2022-11-23T01:58:00.001Z,9.1
2022-11-23T01:59:09.185Z,9.2
2022-11-23T02:01:27.566Z,9.1
2022-11-23T02:02:35.691Z,9
2022-11-23T02:03:43.941Z,8.9
2022-11-23T02:04:53.039Z,8.9
2022-11-23T02:06:02.132Z,8.8
2022-11-23T02:07:11.383Z,8.8
2022-11-23T02:08:20.625Z,8.9
2022-11-23T02:09:29.788Z,8.9
2022-11-23T02:10:38.842Z,8.9
2022-11-23T02:11:47.198Z,8.8
2022-11-23T02:12:56.316Z,8.8
2022-11-23T02:14:05.526Z,8.8
2022-11-23T02:15:14.718Z,8.8
2022-11-23T02:16:23.872Z,8.7
2022-11-23T02:17:33.050Z,8.8
2022-11-23T02:18:42.176Z,8.8
2022-11-23T02:19:51.350Z,8.7
2022-11-23T02:21:00.565Z,8.7
2022-11-23T02:22:09.719Z,8.6
2022-11-23T02:23:18.840Z,8.6
2022-11-23T02:24:27.930Z,8.6
2022-11-23T02:25:37.208Z,8.5
2022-11-23T02:26:45.293Z,8.5
2022-11-23T02:27:53.619Z,8.5
2022-11-23T02:29:02.800Z,8.7
2022-11-23T02:30:11.886Z,8.7
2022-11-23T02:31:21.126Z,8.5
2022-11-23T02:32:30.254Z,8.7
2022-11-23T02:33:38.540Z,8.6
2022-11-23T02:34:46.687Z,8.7
2022-11-23T02:35:55.877Z,8.7
2022-11-23T02:37:05.027Z,8.8
2022-11-23T02:38:14.240Z,8.7
2022-11-23T02:39:23.392Z,8.7
2022-11-23T02:40:32.564Z,8.8
2022-11-23T02:41:41.740Z,8.8
2022-11-23T02:42:50.918Z,8.7
2022-11-23T02:44:00.079Z,8.8
2022-11-23T02:45:09.235Z,8.7
2022-11-23T02:46:18.478Z,8.7
2022-11-23T02:47:27.587Z,8.7
2022-11-23T02:48:36.786Z,8.7
2022-11-23T02:49:44.967Z,8.7
2022-11-23T02:50:53.991Z,8.7
2022-11-23T02:52:03.289Z,8.5
2022-11-23T02:53:12.494Z,8.6
2022-11-23T02:54:21.652Z,8.6
2022-11-23T02:55:30.666Z,8.7
2022-11-23T02:56:39.943Z,8.8
2022-11-23T02:57:48.172Z,8.5
2022-11-23T02:58:56.284Z,8.5
2022-11-23T03:00:05.568Z,8.6
2022-11-23T03:01:14.706Z,8.5
2022-11-23T03:02:23.882Z,8.6
2022-11-23T03:03:33.073Z,8.5
2022-11-23T03:04:42.235Z,8.7
2022-11-23T03:05:51.374Z,8.6
2022-11-23T03:07:00.539Z,8.6
2022-11-23T03:08:08.733Z,8.6
2022-11-23T03:09:16.951Z,8.5
2022-11-23T03:10:26.107Z,8.7
2022-11-23T03:11:35.169Z,8.7
2022-11-23T03:12:44.348Z,8.7
2022-11-23T03:13:53.623Z,8.7
2022-11-23T03:15:02.685Z,8.6
2022-11-23T03:16:11.943Z,8.7
2022-11-23T03:17:21.048Z,8.7
2022-11-23T03:18:30.202Z,8.7
2022-11-23T03:20:48.653Z,8.7
2022-11-23T03:21:57.908Z,8.7
2022-11-23T03:23:06.897Z,8.7
2022-11-23T03:24:15.240Z,8.8
2022-11-23T03:25:24.333Z,8.7
2022-11-23T03:26:33.502Z,8.8
2022-11-23T03:27:42.675Z,8.8
2022-11-23T03:28:51.904Z,8.7
2022-11-23T03:30:01.175Z,8.7
2022-11-23T03:31:10.339Z,8.7
2022-11-23T03:32:19.451Z,8.7
2022-11-23T03:33:28.472Z,8.7
2022-11-23T03:34:37.806Z,8.7
2022-11-23T03:35:46.963Z,8.7
2022-11-23T03:36:56.135Z,8.7
2022-11-23T03:38:05.306Z,8.8
2022-11-23T03:40:22.664Z,8.7
2022-11-23T03:41:31.842Z,8.8
2022-11-23T03:42:41.012Z,8.7
2022-11-23T03:43:50.139Z,8.8
2022-11-23T03:44:59.206Z,8.7
2022-11-23T03:46:08.459Z,8.7
2022-11-23T03:48:26.794Z,8.7
2022-11-23T03:49:36.075Z,8.7
2022-11-23T03:50:45.160Z,8.7
2022-11-23T03:51:54.292Z,8.8
2022-11-23T03:53:03.545Z,8.8
2022-11-23T03:54:11.733Z,8.8
2022-11-23T03:55:20.781Z,8.8
2022-11-23T03:56:30.010Z,8.8
2022-11-23T03:57:39.219Z,8.7
2022-11-23T03:58:48.358Z,8.8
2022-11-23T03:59:57.566Z,8.7
2022-11-23T04:01:06.792Z,8.8
2022-11-23T04:02:15.914Z,8.8
2022-11-23T04:03:25.120Z,8.8
2022-11-23T04:04:34.154Z,8.8
2022-11-23T04:05:43.384Z,8.8
2022-11-23T04:06:52.619Z,8.8
2022-11-23T04:08:01.816Z,8.8
2022-11-23T04:09:10.009Z,8.9
2022-11-23T04:10:19.171Z,8.8
2022-11-23T04:11:28.301Z,8.8
2022-11-23T04:12:37.444Z,8.8
2022-11-23T04:13:46.640Z,8.9
2022-11-23T04:14:55.737Z,8.8
2022-11-23T04:16:05.112Z,8.8
2022-11-23T04:17:14.288Z,8.8
2022-11-23T04:18:23.244Z,8.8
2022-11-23T04:19:32.554Z,8.8
2022-11-23T04:20:41.739Z,8.9
2022-11-23T04:21:50.860Z,8.9
2022-11-23T04:23:00.020Z,8.9
2022-11-23T04:24:08.183Z,8.9
2022-11-23T04:25:17.374Z,8.8
2022-11-23T04:26:26.561Z,8.8
2022-11-23T04:27:35.712Z,8.8
2022-11-23T04:28:44.913Z,8.9
2022-11-23T04:29:54.039Z,8.9
2022-11-23T04:31:03.211Z,8.9
2022-11-23T04:32:12.356Z,8.9
2022-11-23T04:33:21.642Z,8.8
2022-11-23T04:34:30.802Z,8.9
2022-11-23T04:35:40.030Z,8.9
2022-11-23T04:36:49.080Z,8.9
2022-11-23T04:37:58.279Z,8.9
2022-11-23T04:39:06.578Z,8.9
2022-11-23T04:40:15.565Z,8.9
2022-11-23T04:41:24.729Z,8.9
2022-11-23T04:42:34.044Z,8.9
2022-11-23T04:43:43.103Z,8.9
2022-11-23T04:44:52.429Z,8.9
2022-11-23T04:46:01.495Z,8.8
2022-11-23T04:47:10.608Z,8.8
2022-11-23T04:48:19.767Z,8.8
2022-11-23T04:49:29.019Z,8.7
2022-11-23T04:50:38.108Z,8.8
2022-11-23T04:52:56.570Z,8.8
2022-11-23T04:54:04.690Z,8.9
2022-11-23T04:55:13.875Z,8.8
2022-11-23T04:56:23.052Z,8.8
2022-11-23T04:57:32.221Z,8.8
2022-11-23T04:58:41.392Z,8.9
2022-11-23T04:59:50.504Z,8.7
2022-11-23T05:00:59.685Z,8.7
2022-11-23T05:02:08.866Z,8.8
2022-11-23T05:03:18.029Z,8.7
2022-11-23T05:04:27.201Z,8.7
2022-11-23T05:05:36.535Z,8.7
2022-11-23T05:06:45.556Z,8.8
2022-11-23T05:07:54.721Z,8.7
2022-11-23T05:09:02.949Z,8.7
2022-11-23T05:10:12.229Z,8.7
2022-11-23T05:11:20.306Z,8.7
2022-11-23T05:12:28.577Z,8.7
2022-11-23T05:13:37.713Z,8.7
2022-11-23T05:14:46.806Z,8.7
2022-11-23T05:15:56.004Z,8.7
2022-11-23T05:17:05.264Z,8.6
2022-11-23T05:18:14.331Z,8.6
2022-11-23T05:19:23.569Z,8.6
2022-11-23T05:20:32.782Z,8.6
2022-11-23T05:21:42.046Z,8.6
2022-11-23T05:22:51.094Z,8.7
2022-11-23T05:23:59.377Z,8.7
2022-11-23T05:25:07.465Z,8.7
2022-11-23T05:26:16.620Z,8.6
2022-11-23T05:27:25.755Z,8.6
2022-11-23T05:28:34.923Z,8.5
2022-11-23T05:29:44.098Z,8.6
2022-11-23T05:30:53.321Z,8.7
2022-11-23T05:32:02.490Z,8.6
2022-11-23T05:33:11.647Z,8.7
2022-11-23T05:34:20.856Z,8.7
2022-11-23T05:35:29.965Z,8.7
2022-11-23T05:36:39.135Z,8.6
2022-11-23T05:37:48.309Z,8.6
2022-11-23T05:38:57.488Z,8.7
2022-11-23T05:40:05.763Z,8.7
2022-11-23T05:41:14.939Z,8.7
2022-11-23T05:42:24.057Z,8.7
2022-11-23T05:43:33.293Z,8.7
2022-11-23T05:44:42.352Z,8.7
2022-11-23T05:45:51.614Z,8.6
2022-11-23T05:47:00.701Z,8.7
2022-11-23T05:48:08.901Z,8.7
2022-11-23T05:49:18.050Z,8.8
2022-11-23T05:50:26.291Z,8.7
2022-11-23T05:51:34.541Z,8.8
2022-11-23T05:52:43.835Z,8.6
2022-11-23T05:53:52.854Z,8.6
2022-11-23T05:55:01.991Z,8.6
2022-11-23T05:56:11.197Z,8.5
2022-11-23T05:57:20.467Z,8.7
2022-11-23T05:59:38.826Z,8.7
2022-11-23T06:00:47.831Z,8.6
2022-11-23T06:01:57.115Z,8.5
2022-11-23T06:03:05.263Z,8.6
2022-11-23T06:04:14.385Z,8.7
2022-11-23T06:06:32.703Z,8.5
2022-11-23T06:07:41.880Z,8.5
2022-11-23T06:08:50.089Z,8.5
2022-11-23T06:09:58.315Z,8.5
2022-11-23T06:11:07.629Z,8.5
2022-11-23T06:12:16.645Z,8.6
2022-11-23T06:13:25.780Z,8.5
2022-11-23T06:14:34.961Z,8.6
2022-11-23T06:15:44.133Z,8.5
2022-11-23T06:16:53.305Z,8.6
2022-11-23T06:18:02.512Z,8.6
2022-11-23T06:19:11.652Z,8.6
2022-11-23T06:20:20.872Z,8.6
2022-11-23T06:21:29.139Z,8.6
2022-11-23T06:22:37.341Z,8.7
2022-11-23T06:23:46.499Z,8.6
2022-11-23T06:24:55.568Z,8.6
2022-11-23T06:26:04.756Z,8.7
2022-11-23T06:27:13.890Z,8.6
2022-11-23T06:28:23.130Z,8.6
2022-11-23T06:29:32.401Z,8.5
2022-11-23T06:30:41.411Z,8.6
2022-11-23T06:31:50.654Z,8.5
2022-11-23T06:32:59.819Z,8.6
2022-11-23T06:34:09.032Z,8.6
2022-11-23T06:35:18.135Z,8.6
2022-11-23T06:36:27.379Z,8.6
2022-11-23T06:37:35.492Z,8.7
2022-11-23T06:38:44.682Z,8.7
2022-11-23T06:39:53.894Z,8.6
2022-11-23T06:41:03.075Z,8.6
2022-11-23T06:42:12.184Z,8.6
2022-11-23T06:43:21.387Z,8.6
2022-11-23T06:44:30.610Z,8.7
2022-11-23T06:45:39.766Z,8.5
2022-11-23T06:46:48.900Z,8.6
2022-11-23T06:47:58.099Z,8.7
2022-11-23T06:49:07.309Z,8.7
2022-11-23T06:50:16.510Z,8.7
2022-11-23T06:51:25.613Z,8.6
2022-11-23T06:52:33.987Z,8.7
2022-11-23T06:53:43.000Z,8.7
2022-11-23T06:54:52.150Z,8.6
2022-11-23T06:56:01.276Z,8.7
2022-11-23T06:57:10.493Z,8.7
2022-11-23T06:58:19.647Z,8.7
2022-11-23T06:59:27.873Z,8.8
2022-11-23T07:00:36.083Z,8.7
2022-11-23T07:01:45.149Z,8.7
2022-11-23T07:02:53.433Z,8.7
2022-11-23T07:04:01.592Z,8.5
2022-11-23T07:05:10.728Z,8.7
2022-11-23T07:06:19.975Z,8.6
2022-11-23T07:07:29.042Z,8.7
2022-11-23T07:08:38.218Z,8.6
2022-11-23T07:09:47.407Z,8.7
2022-11-23T07:10:56.600Z,8.7
2022-11-23T07:12:05.818Z,8.7
2022-11-23T07:13:14.964Z,8.7
2022-11-23T07:14:24.097Z,8.6
2022-11-23T07:15:33.263Z,8.7
2022-11-23T07:16:42.523Z,8.7
2022-11-23T07:17:51.731Z,8.7
2022-11-23T07:18:59.808Z,8.6
2022-11-23T07:20:09.040Z,8.7
2022-11-23T07:21:18.154Z,8.6
2022-11-23T07:22:27.302Z,8.6
2022-11-23T07:23:36.632Z,8.6
2022-11-23T07:24:45.658Z,8.7
2022-11-23T07:25:54.814Z,8.8
2022-11-23T07:27:03.081Z,8.8
2022-11-23T07:28:11.269Z,8.7
2022-11-23T07:29:20.376Z,8.6
2022-11-23T07:30:29.557Z,8.7
2022-11-23T07:31:38.821Z,8.6
2022-11-23T07:32:46.991Z,8.7
2022-11-23T07:33:55.178Z,8.8
2022-11-23T07:35:04.357Z,8.7
2022-11-23T07:36:13.468Z,8.7
2022-11-23T07:37:22.759Z,8.7
2022-11-23T07:38:31.795Z,8.7
2022-11-23T07:39:40.964Z,8.6
2022-11-23T07:41:59.321Z,8.6
2022-11-23T07:43:08.564Z,8.6
2022-11-23T07:44:17.676Z,8.8
2022-11-23T07:45:26.906Z,8.7
2022-11-23T07:46:36.110Z,8.7
2022-11-23T07:47:45.185Z,8.7
2022-11-23T07:48:53.488Z,8.6
2022-11-23T07:50:02.590Z,8.8
2022-11-23T07:51:11.720Z,8.7
2022-11-23T07:52:20.909Z,8.7
2022-11-23T07:53:30.193Z,8.7
2022-11-23T07:54:39.225Z,8.8
2022-11-23T07:55:48.425Z,8.8
2022-11-23T07:56:57.569Z,8.8
2022-11-23T07:58:06.851Z,8.8
2022-11-23T07:59:15.987Z,8.9
2022-11-23T08:00:25.161Z,8.8
2022-11-23T08:01:34.344Z,8.9
2022-11-23T08:02:43.451Z,8.9
2022-11-23T08:03:51.634Z,8.9
2022-11-23T08:05:00.853Z,9
2022-11-23T08:06:10.061Z,8.8
2022-11-23T08:07:19.319Z,8.9
2022-11-23T08:08:28.523Z,8.9
2022-11-23T08:09:37.638Z,8.9
2022-11-23T08:10:46.718Z,8.9
2022-11-23T08:11:55.926Z,9
2022-11-23T08:13:05.155Z,9
2022-11-23T08:14:14.179Z,9
2022-11-23T08:15:23.484Z,8.9
2022-11-23T08:16:32.579Z,8.9
2022-11-23T08:17:41.787Z,9
2022-11-23T08:19:59.223Z,9.1
2022-11-23T08:21:08.346Z,9
2022-11-23T08:22:17.442Z,9.1
2022-11-23T08:23:26.658Z,9.1
2022-11-23T08:24:36.031Z,9.1
2022-11-23T08:25:45.087Z,9.1
2022-11-23T08:26:54.094Z,9.2
2022-11-23T08:28:03.286Z,9.2
2022-11-23T08:29:12.537Z,9.2
2022-11-23T08:30:21.715Z,9.2
2022-11-23T08:31:30.792Z,9.3
2022-11-23T08:32:39.975Z,9.2
2022-11-23T08:33:48.149Z,9.3
2022-11-23T08:34:57.418Z,9.2
2022-11-23T08:36:06.571Z,9.3
2022-11-23T08:37:15.667Z,9.3
2022-11-23T08:38:24.829Z,9.2
2022-11-23T08:39:34.165Z,9.2
2022-11-23T08:40:43.223Z,9.4
2022-11-23T08:41:52.460Z,9.4
2022-11-23T08:43:01.605Z,9.4
2022-11-23T08:44:10.758Z,9.3
2022-11-23T08:45:20.036Z,9.2
2022-11-23T08:46:29.062Z,9.3
2022-11-23T08:47:38.359Z,9.3
2022-11-23T08:48:46.410Z,9.3
2022-11-23T08:49:55.669Z,9.2
2022-11-23T08:51:04.842Z,9.1
2022-11-23T08:52:14.003Z,9.1
2022-11-23T08:53:23.252Z,9.1
2022-11-23T08:54:32.280Z,9.1
2022-11-23T08:55:41.665Z,9.2
2022-11-23T08:56:50.732Z,9.1
2022-11-23T08:57:59.902Z,9.1
2022-11-23T08:59:09.062Z,9.1
2022-11-23T09:00:18.230Z,9.1
2022-11-23T09:01:27.524Z,9
2022-11-23T09:02:36.477Z,9.1
2022-11-23T09:03:44.783Z,9.1
2022-11-23T09:04:53.978Z,9.2
2022-11-23T09:06:03.132Z,9.1
2022-11-23T09:07:12.345Z,9.1
2022-11-23T09:08:21.468Z,9.2
2022-11-23T09:09:30.606Z,9.2
2022-11-23T09:10:39.841Z,9.3
2022-11-23T09:11:48.897Z,9.2
2022-11-23T09:12:58.065Z,9.3
2022-11-23T09:14:07.264Z,9.3
2022-11-23T09:15:16.586Z,9.3
2022-11-23T09:16:25.654Z,9.3
2022-11-23T09:17:34.738Z,9.3
2022-11-23T09:18:42.918Z,9.5
2022-11-23T09:19:52.110Z,9.6
2022-11-23T09:21:01.472Z,9.6
2022-11-23T09:22:10.467Z,9.6
2022-11-23T09:23:19.691Z,9.5
2022-11-23T09:24:28.997Z,9.6
2022-11-23T09:25:38.139Z,9.7
2022-11-23T09:26:47.137Z,9.7
2022-11-23T09:27:56.487Z,9.6
2022-11-23T09:29:05.578Z,9.6
2022-11-23T09:30:14.807Z,9.5
2022-11-23T09:31:23.843Z,9.6
2022-11-23T09:32:33.013Z,9.5
2022-11-23T09:33:41.176Z,9.5
2022-11-23T09:34:50.543Z,9.6
2022-11-23T09:35:58.547Z,9.7
2022-11-23T09:37:06.885Z,9.6
2022-11-23T09:38:15.948Z,9.7
2022-11-23T09:39:25.103Z,9.7
2022-11-23T09:40:33.306Z,9.8
2022-11-23T09:41:41.588Z,9.7
2022-11-23T09:42:50.649Z,9.7
2022-11-23T09:43:59.850Z,9.7
2022-11-23T09:45:09.085Z,9.9
2022-11-23T09:46:18.160Z,9.9
2022-11-23T09:47:27.477Z,10
2022-11-23T09:48:36.712Z,10.1
2022-11-23T09:49:45.783Z,10.1
2022-11-23T09:50:54.925Z,10.1
2022-11-23T09:52:04.020Z,10.2
2022-11-23T09:53:13.284Z,10.1
2022-11-23T09:54:21.496Z,10.1
2022-11-23T09:55:30.726Z,10.2
2022-11-23T09:56:39.844Z,10.3
2022-11-23T09:57:48.950Z,10.1
2022-11-23T09:58:58.202Z,10.2
2022-11-23T10:00:07.376Z,10.4
2022-11-23T10:01:16.415Z,10.5
2022-11-23T10:02:25.611Z,10.4
2022-11-23T10:03:34.761Z,10.5
2022-11-23T10:04:43.062Z,10.4
2022-11-23T10:05:51.229Z,10.6
2022-11-23T10:07:00.368Z,10.4
2022-11-23T10:08:09.514Z,10.5
2022-11-23T10:09:18.651Z,10.6
2022-11-23T10:10:27.841Z,10.5
2022-11-23T10:11:37.096Z,10.6
2022-11-23T10:12:46.177Z,10.8
2022-11-23T10:13:55.346Z,10.6
2022-11-23T10:15:04.579Z,10.7
2022-11-23T10:16:13.963Z,10.9
2022-11-23T10:17:21.900Z,11.2
2022-11-23T10:18:30.085Z,11.2
2022-11-23T10:19:39.323Z,11.2
2022-11-23T10:20:48.484Z,11.3
2022-11-23T10:21:57.605Z,11.3
2022-11-23T10:23:06.868Z,11.4
2022-11-23T10:24:16.036Z,11.5
2022-11-23T10:25:25.203Z,11.4
2022-11-23T10:26:34.285Z,11.5
2022-11-23T10:27:43.643Z,11.4
2022-11-23T10:28:52.663Z,11.5
2022-11-23T10:30:01.914Z,11.4
2022-11-23T10:31:11.072Z,11.4
2022-11-23T10:32:20.236Z,11.3
2022-11-23T10:33:28.333Z,11.3
2022-11-23T10:34:37.703Z,11.3
2022-11-23T10:35:46.824Z,11.3
2022-11-23T10:38:05.026Z,11.6
2022-11-23T10:39:14.327Z,11.5
2022-11-23T10:40:23.498Z,11.7
2022-11-23T10:41:32.626Z,12.1
2022-11-23T10:42:41.779Z,12.1
2022-11-23T10:43:50.976Z,12.2
2022-11-23T10:45:00.108Z,12.6
2022-11-23T10:46:09.261Z,12.7
2022-11-23T10:47:18.527Z,12.5
2022-11-23T10:48:27.645Z,12.2
2022-11-23T10:49:35.760Z,12.6
2022-11-23T10:50:43.967Z,13.4
2022-11-23T10:51:53.134Z,12.7
2022-11-23T10:53:02.355Z,12.7
2022-11-23T10:54:11.475Z,13
2022-11-23T10:55:20.790Z,13.5
2022-11-23T10:56:29.817Z,13.2
2022-11-23T10:57:39.099Z,13.2
2022-11-23T10:58:48.161Z,12.8
2022-11-23T10:59:57.361Z,12.7
2022-11-23T11:01:06.586Z,13.1
2022-11-23T11:02:15.669Z,13.4
2022-11-23T11:03:24.912Z,12.9
2022-11-23T11:04:34.163Z,13
2022-11-23T11:05:42.207Z,12.9
2022-11-23T11:06:51.472Z,13.1
2022-11-23T11:08:00.554Z,12.5
2022-11-23T11:09:09.823Z,12.7
2022-11-23T11:10:18.912Z,12
2022-11-23T11:11:28.091Z,12.8
2022-11-23T11:12:37.311Z,13
2022-11-23T11:13:45.465Z,13
2022-11-23T11:14:53.687Z,12.9
2022-11-23T11:16:02.805Z,12.6
2022-11-23T11:17:11.078Z,12.7
2022-11-23T11:18:19.250Z,13.2
2022-11-23T11:19:28.409Z,13.5
2022-11-23T11:20:37.582Z,12.6
2022-11-23T11:21:46.766Z,12.7
2022-11-23T11:22:55.887Z,13
2022-11-23T11:24:05.040Z,13.4
2022-11-23T11:25:14.332Z,12.9
2022-11-23T11:26:23.405Z,13
2022-11-23T11:27:32.635Z,12.7
2022-11-23T11:28:41.733Z,13.4
2022-11-23T11:29:50.919Z,13.2
2022-11-23T11:31:00.082Z,12.9
2022-11-23T11:32:09.239Z,12.1
2022-11-23T11:33:17.429Z,12.4
2022-11-23T11:34:26.605Z,12.7
2022-11-23T11:35:35.792Z,12.8
2022-11-23T11:36:45.061Z,13.2
2022-11-23T11:37:54.131Z,13
2022-11-23T11:39:03.293Z,12.6
2022-11-23T11:40:12.471Z,12.9
2022-11-23T11:41:21.740Z,12.6
2022-11-23T11:42:29.832Z,12.5
2022-11-23T11:43:38.018Z,12.9
2022-11-23T11:44:47.202Z,13.3
2022-11-23T11:45:55.389Z,13
2022-11-23T11:47:03.605Z,13
2022-11-23T11:48:12.751Z,12.9
2022-11-23T11:49:21.948Z,11.7
2022-11-23T11:50:31.166Z,11.3
2022-11-23T11:51:40.266Z,12
2022-11-23T11:52:49.432Z,12.8
2022-11-23T11:53:58.617Z,12.9
2022-11-23T11:55:07.888Z,12.8
2022-11-23T11:57:26.132Z,13.1
2022-11-23T11:58:35.359Z,13.2
2022-11-23T12:00:53.802Z,13.3
2022-11-23T12:02:01.949Z,13.3
2022-11-23T12:03:11.010Z,12.4
2022-11-23T12:04:19.220Z,12.7
2022-11-23T12:05:28.427Z,12.8
2022-11-23T12:06:37.661Z,12.6
2022-11-23T12:07:46.749Z,12.7
2022-11-23T12:08:55.880Z,12.7
2022-11-23T12:10:05.072Z,13.2
2022-11-23T12:11:14.365Z,13.5
2022-11-23T12:12:23.468Z,13.4
2022-11-23T12:13:32.577Z,12.5
2022-11-23T12:14:40.777Z,12.7
2022-11-23T12:15:48.979Z,13.1
2022-11-23T12:16:58.309Z,13
2022-11-23T12:18:07.288Z,13.1
2022-11-23T12:19:16.673Z,13.1
2022-11-23T12:20:25.790Z,12.8
2022-11-23T12:21:34.812Z,12.3
2022-11-23T12:22:43.991Z,12.1
2022-11-23T12:23:53.280Z,11.8
2022-11-23T12:26:11.699Z,11.6
2022-11-23T12:27:20.852Z,12.1
2022-11-23T12:28:29.986Z,12.7
2022-11-23T12:29:39.017Z,12.9
2022-11-23T12:30:48.372Z,12.9
2022-11-23T12:33:05.776Z,12.4
2022-11-23T12:36:32.106Z,12.5
2022-11-23T12:37:40.293Z,12.6
2022-11-23T12:38:48.475Z,12.5
2022-11-23T12:39:57.769Z,12.1
2022-11-23T12:41:06.879Z,12.2
2022-11-23T12:42:16.002Z,12.5
2022-11-23T12:43:25.167Z,12.4
2022-11-23T12:44:34.503Z,12.7
2022-11-23T12:45:43.538Z,11.9
2022-11-23T12:46:52.763Z,12.8
2022-11-23T12:48:01.862Z,12.9
2022-11-23T12:49:11.033Z,13.2
2022-11-23T12:50:19.243Z,12.4
2022-11-23T12:51:27.410Z,12.6
2022-11-23T12:52:36.745Z,12.6
2022-11-23T12:53:45.790Z,12.1
2022-11-23T12:54:55.132Z,12.5
2022-11-23T12:56:04.256Z,11.6
2022-11-23T12:57:13.271Z,11.4
2022-11-23T12:58:22.443Z,12
2022-11-23T12:59:31.753Z,11.5
2022-11-23T13:00:40.789Z,11.3
2022-11-23T13:01:49.957Z,11.2
2022-11-23T13:02:59.175Z,11.3
2022-11-23T13:04:08.413Z,11.3
2022-11-23T13:05:17.489Z,12.1
2022-11-23T13:06:25.748Z,12.5
2022-11-23T13:07:34.908Z,12.6
2022-11-23T13:08:44.063Z,12.9
2022-11-23T13:09:53.342Z,12.5
2022-11-23T13:11:02.564Z,11.7
2022-11-23T13:12:11.754Z,11.3
2022-11-23T13:13:20.727Z,12
2022-11-23T13:14:29.912Z,12.2
2022-11-23T13:15:39.097Z,12.4
2022-11-23T13:16:48.241Z,12.4
2022-11-23T13:17:57.571Z,12.5
2022-11-23T13:19:06.607Z,12.5
2022-11-23T13:20:14.946Z,12.6
2022-11-23T13:21:23.188Z,12.7
2022-11-23T13:22:32.172Z,12.6
2022-11-23T13:23:41.539Z,12
2022-11-23T13:24:50.674Z,12.2
2022-11-23T13:25:59.665Z,12.3
2022-11-23T13:27:09.029Z,12.2
2022-11-23T13:28:17.186Z,12.4
2022-11-23T13:29:25.410Z,11.7
2022-11-23T13:30:34.390Z,11.7
2022-11-23T13:31:43.560Z,11.9
2022-11-23T13:32:52.836Z,11.7
2022-11-23T13:34:02.077Z,12.2
2022-11-23T13:35:11.079Z,12
2022-11-23T13:36:20.261Z,12.2
2022-11-23T13:37:29.546Z,11.9
2022-11-23T13:38:38.597Z,12.1
2022-11-23T13:39:47.926Z,12.4
2022-11-23T13:40:57.118Z,12.3
2022-11-23T13:42:06.316Z,12.1
2022-11-23T13:43:15.531Z,11.6
2022-11-23T13:44:23.631Z,11.7
2022-11-23T13:45:31.900Z,12.1
2022-11-23T13:46:40.845Z,12.1
2022-11-23T13:47:50.161Z,12.2
2022-11-23T13:48:59.237Z,12.3
2022-11-23T13:50:08.564Z,12.2
2022-11-23T13:51:17.729Z,12.1
2022-11-23T13:52:26.876Z,12.1
2022-11-23T13:53:35.146Z,12.2
2022-11-23T13:54:43.165Z,12.2
2022-11-23T13:55:52.407Z,12.5
2022-11-23T13:57:00.632Z,12.1
2022-11-23T13:58:08.638Z,12.1
2022-11-23T13:59:18.009Z,12.3
2022-11-23T14:00:27.127Z,12.8
2022-11-23T14:01:36.580Z,13
2022-11-23T14:03:54.709Z,12.5
2022-11-23T14:05:03.818Z,12.5
2022-11-23T14:06:13.021Z,12.4
2022-11-23T14:07:22.236Z,12
2022-11-23T14:08:31.401Z,12.3
2022-11-23T14:09:40.523Z,12
2022-11-23T14:10:49.572Z,11.8
2022-11-23T14:11:58.953Z,11.8
2022-11-23T14:13:07.086Z,11.7
2022-11-23T14:14:16.268Z,11.5
2022-11-23T14:15:25.434Z,11.3
2022-11-23T14:16:34.587Z,11.1
2022-11-23T14:17:43.746Z,11.1
2022-11-23T14:18:52.787Z,11.3
2022-11-23T14:20:01.950Z,11.3
2022-11-23T14:21:11.257Z,11.2
2022-11-23T14:22:19.479Z,11.1
2022-11-23T14:23:27.543Z,11.1
2022-11-23T14:24:35.844Z,11.1
2022-11-23T14:25:44.041Z,11.1
2022-11-23T14:26:53.222Z,11.2
2022-11-23T14:28:02.384Z,11.2
2022-11-23T14:29:11.570Z,11.2
2022-11-23T14:30:20.790Z,11
2022-11-23T14:31:29.899Z,10.9
2022-11-23T14:32:39.109Z,10.9
2022-11-23T14:33:48.306Z,11
2022-11-23T14:34:57.444Z,10.9
2022-11-23T14:36:06.668Z,10.8
2022-11-23T14:37:15.749Z,10.6
2022-11-23T14:38:24.926Z,10.5
2022-11-23T14:39:34.177Z,10.5
2022-11-23T14:40:42.296Z,10.5
2022-11-23T14:41:51.586Z,10.4
2022-11-23T14:43:00.658Z,10.4
2022-11-23T14:44:09.812Z,10.4
2022-11-23T14:45:18.811Z,10.3
2022-11-23T14:46:27.992Z,10.3
2022-11-23T14:47:37.333Z,10.4
2022-11-23T14:48:46.461Z,10.3
2022-11-23T14:49:55.755Z,10.3
2022-11-23T14:51:04.820Z,10.2
2022-11-23T14:52:14.107Z,10.2
2022-11-23T14:53:23.211Z,10.2
2022-11-23T14:54:32.327Z,10.2
2022-11-23T14:55:40.551Z,10.1
2022-11-23T14:57:58.930Z,10.1
2022-11-23T14:59:08.102Z,10.1
2022-11-23T15:00:17.267Z,10.1
2022-11-23T15:01:26.382Z,10.1
2022-11-23T15:03:44.775Z,10.1
2022-11-23T15:04:53.975Z,10
2022-11-23T15:06:02.940Z,10
2022-11-23T15:07:12.248Z,9.9
2022-11-23T15:08:21.444Z,9.9
2022-11-23T15:09:30.462Z,10
2022-11-23T15:10:38.642Z,9.9
2022-11-23T15:11:47.989Z,9.9
2022-11-23T15:12:57.167Z,9.9
2022-11-23T15:14:06.309Z,9.9
2022-11-23T15:15:15.489Z,9.9
2022-11-23T15:16:24.545Z,9.8
2022-11-23T15:17:33.828Z,9.8
2022-11-23T15:18:42.995Z,9.8
2022-11-23T15:19:52.235Z,9.7
2022-11-23T15:21:01.363Z,9.7
2022-11-23T15:22:10.633Z,9.8
2022-11-23T15:23:19.712Z,9.8
2022-11-23T15:24:28.871Z,9.7
2022-11-23T15:25:37.056Z,9.6
2022-11-23T15:26:46.341Z,9.6
2022-11-23T15:27:55.426Z,9.6
2022-11-23T15:29:04.623Z,9.5
2022-11-23T15:30:13.790Z,9.5
2022-11-23T15:31:22.758Z,9.5
2022-11-23T15:32:32.148Z,9.5
2022-11-23T15:33:41.253Z,9.4
2022-11-23T15:34:50.448Z,9.4
2022-11-23T15:35:59.631Z,9.5
2022-11-23T15:37:08.821Z,9.3
2022-11-23T15:38:17.994Z,9.4
2022-11-23T15:39:27.082Z,9.4
2022-11-23T15:40:36.317Z,9.4
2022-11-23T15:42:53.755Z,9.3
2022-11-23T15:44:02.676Z,9.3
2022-11-23T15:45:12.053Z,9.3
2022-11-23T15:46:21.191Z,9.3
2022-11-23T15:47:30.369Z,9.3
2022-11-23T15:48:39.643Z,9.2
2022-11-23T15:49:48.636Z,9.2
2022-11-23T15:50:57.948Z,9.1
2022-11-23T15:52:07.041Z,9.1
2022-11-23T15:53:16.061Z,9.1
2022-11-23T15:54:25.378Z,9.1
2022-11-23T15:55:34.404Z,9.1
2022-11-23T15:56:42.787Z,9.2
2022-11-23T15:57:51.896Z,9.1
2022-11-23T15:59:01.220Z,9.1
2022-11-23T16:00:10.290Z,9
2022-11-23T16:01:19.282Z,9.1
2022-11-23T16:02:28.473Z,9
2022-11-23T16:04:46.965Z,9
2022-11-23T16:05:56.121Z,9.1
2022-11-23T16:07:05.309Z,9
2022-11-23T16:08:13.518Z,9.1
2022-11-23T16:09:21.690Z,9.1